Time;durP1;ratioP1;P1;durP2;ratioP2;P2;SDS_P1;SDS_P2;PMS_P1;PMS_P2;Temp;Humidity;BMP_temperature;BMP_pressure;BME280_temperature;BME280_humidity;BME280_pressure;Samples;Min_cycle;Max_cycle;Signal;HPM_P1;HPM_P2
2022/10/29 00:01:29;;;;;;;0.68;0.68;;;;;;;12.65;100.00;100686.38;5034075;28;20040;-72
2022/10/29 00:03:55;;;;;;;0.00;0.00;;;;;;;12.64;100.00;100673.88;5035449;28;20025;-73
2022/10/29 00:06:20;;;;;;;0.15;0.15;;;;;;;12.66;100.00;100677.28;5036032;28;20083;-74
2022/10/29 00:08:46;;;;;;;0.00;0.00;;;;;;;12.65;100.00;100670.19;5035453;28;20497;-74
2022/10/29 00:11:18;;;;;;;0.10;0.10;;;;;;;12.67;99.81;100662.81;5035552;28;20030;-73
2022/10/29 00:13:45;;;;;;;0.08;0.08;;;;;;;12.63;98.96;100658.69;5035498;28;20096;-72
2022/10/29 00:16:12;;;;;;;0.00;0.00;;;;;;;12.69;99.07;100660.81;5035435;28;20034;-73
2022/10/29 00:18:38;;;;;;;0.20;0.20;;;;;;;12.62;98.71;100638.09;5034178;28;20036;-76
2022/10/29 00:21:06;;;;;;;0.00;0.00;;;;;;;12.65;98.48;100638.69;5033932;28;20398;-73
2022/10/29 00:23:32;;;;;;;0.00;0.00;;;;;;;12.66;98.46;100639.53;5035026;28;20463;-74
2022/10/29 00:25:59;;;;;;;0.00;0.00;;;;;;;12.62;98.47;100635.41;5033780;28;20075;-74
2022/10/29 00:28:24;;;;;;;0.10;0.10;;;;;;;12.63;98.52;100629.03;5035102;28;20455;-75
2022/10/29 00:30:50;;;;;;;0.00;0.00;;;;;;;12.59;98.22;100623.03;5034951;28;20072;-73
2022/10/29 00:33:17;;;;;;;0.10;0.10;;;;;;;12.57;98.60;100630.41;5034670;28;20030;-74
2022/10/29 00:36:04;;;;;;;0.00;0.00;;;;;;;12.57;98.51;100630.41;5033727;28;20398;-73
2022/10/29 00:38:31;;;;;;;0.00;0.00;;;;;;;12.54;98.49;100624.44;5033597;28;20083;-74
2022/10/29 00:40:57;;;;;;;0.00;0.00;;;;;;;12.55;98.50;100623.47;5032707;28;20486;-74
2022/10/29 00:43:24;;;;;;;0.20;0.20;;;;;;;12.58;98.46;100615.09;5033975;28;20493;-74
2022/10/29 00:46:01;;;;;;;0.00;0.00;;;;;;;12.58;98.86;100609.69;5035632;28;20075;-74
2022/10/29 00:48:31;;;;;;;0.00;0.00;;;;;;;12.63;98.60;100604.75;5035284;28;20030;-75
2022/10/29 00:50:59;;;;;;;0.00;0.00;;;;;;;12.56;99.27;100603.59;5034692;28;20029;-74
2022/10/29 00:53:29;;;;;;;0.20;0.20;;;;;;;12.58;99.37;100593.50;5034558;28;20397;-72
2022/10/29 00:55:56;;;;;;;0.00;0.00;;;;;;;12.58;98.85;100596.19;5034479;28;20053;-75
2022/10/29 00:58:22;;;;;;;0.00;0.00;;;;;;;12.56;99.36;100596.34;5034773;28;20026;-72
2022/10/29 01:00:47;;;;;;;0.20;0.20;;;;;;;12.56;99.51;100584.72;5034402;28;20029;-73
2022/10/29 01:03:13;;;;;;;0.00;0.00;;;;;;;12.58;99.35;100582.72;5034085;28;20053;-74
2022/10/29 01:05:40;;;;;;;0.00;0.00;;;;;;;12.61;99.05;100569.84;5034993;28;20105;-74
2022/10/29 01:08:05;;;;;;;0.10;0.10;;;;;;;12.58;98.81;100566.53;5033360;28;20505;-74
2022/10/29 01:11:09;;;;;;;0.00;0.00;;;;;;;12.56;98.51;100555.91;5033269;28;20057;-74
2022/10/29 01:13:47;;;;;;;0.10;0.10;;;;;;;12.56;98.86;100546.94;5033306;28;20025;-74
2022/10/29 01:16:51;;;;;;;0.30;0.30;;;;;;;12.62;98.56;100538.31;5035385;28;20026;-73
2022/10/29 01:19:25;;;;;;;0.10;0.10;;;;;;;12.60;98.35;100533.06;5015816;28;20091;-74
2022/10/29 01:22:10;;;;;;;0.25;0.25;;;;;;;12.58;98.63;100524.25;5032889;28;20037;-74
2022/10/29 01:25:09;;;;;;;0.00;0.00;;;;;;;12.59;99.18;100520.56;5034000;28;20116;-74
2022/10/29 01:28:08;;;;;;;0.00;0.00;;;;;;;12.59;98.75;100525.09;5033191;28;20042;-74
2022/10/29 01:30:49;;;;;;;0.10;0.10;;;;;;;12.58;98.85;100523.38;5033144;28;20049;-73
2022/10/29 01:33:52;;;;;;;0.13;0.13;;;;;;;12.57;99.41;100521.69;5033785;28;20037;-74
2022/10/29 01:36:39;;;;;;;0.20;0.20;;;;;;;12.56;99.33;100509.19;5034584;28;20021;-74
2022/10/29 01:39:35;;;;;;;0.47;0.47;;;;;;;12.55;99.19;100502.09;5032508;28;20041;-76
2022/10/29 01:42:35;;;;;;;0.05;0.05;;;;;;;12.55;98.88;100491.31;5032568;28;20034;-74
2022/10/29 01:45:17;;;;;;;0.95;0.43;;;;;;;12.52;98.85;100491.59;5032955;28;20091;-73
2022/10/29 01:47:52;;;;;;;0.65;0.35;;;;;;;12.56;99.43;100488.47;5032806;28;20094;-72
2022/10/29 01:50:20;;;;;;;;;;;;;;;12.54;99.22;100484.22;5034581;28;20030;-74
2022/10/29 01:52:48;;;;;;;0.45;0.45;;;;;;;12.55;99.27;100483.22;5032383;28;19923;-74
2022/10/29 01:55:28;;;;;;;0.28;0.28;;;;;;;12.56;99.21;100483.09;5034477;28;20084;-74
2022/10/29 01:57:53;;;;;;;0.20;0.20;;;;;;;12.54;99.54;100473.44;5036614;28;20026;-74
2022/10/29 02:00:19;;;;;;;0.10;0.10;;;;;;;12.56;99.14;100468.75;5034247;28;20037;-75
2022/10/29 02:03:12;;;;;;;0.10;0.10;;;;;;;12.57;99.33;100451.56;5033336;28;20032;-73
2022/10/29 02:06:09;;;;;;;0.15;0.15;;;;;;;12.12;100.00;100446.75;5034135;28;20033;-70
2022/10/29 02:09:04;;;;;;;1.00;0.65;;;;;;;12.03;100.00;100437.66;5031021;28;20065;-72
2022/10/29 02:11:39;;;;;;;0.10;0.10;;;;;;;11.98;100.00;100423.75;5032649;28;20057;-71
2022/10/29 02:14:27;;;;;;;0.32;0.32;;;;;;;12.04;100.00;100423.19;5033009;28;20049;-71
2022/10/29 02:16:54;;;;;;;2.13;0.40;;;;;;;12.03;100.00;100428.72;5028693;28;20044;-71
2022/10/29 02:19:20;;;;;;;0.00;0.00;;;;;;;12.01;100.00;100425.31;5032542;28;20418;-72
2022/10/29 02:21:45;;;;;;;0.08;0.08;;;;;;;11.96;100.00;100430.28;5034228;28;20033;-72
2022/10/29 02:24:11;;;;;;;0.55;0.20;;;;;;;11.99;100.00;100419.22;5033468;28;20108;-71
2022/10/29 02:26:37;;;;;;;0.10;0.10;;;;;;;12.00;100.00;100411.00;5033072;28;20045;-72
2022/10/29 02:29:02;;;;;;;0.00;0.00;;;;;;;11.97;100.00;100410.44;5032810;28;20486;-72
2022/10/29 02:31:28;;;;;;;0.00;0.00;;;;;;;12.00;100.00;100402.06;5031798;28;20103;-72
2022/10/29 02:33:54;;;;;;;0.20;0.20;;;;;;;12.01;100.00;100401.06;5032726;28;20056;-71
2022/10/29 02:36:19;;;;;;;0.35;0.30;;;;;;;12.02;100.00;100389.31;5031686;28;20037;-73
2022/10/29 02:38:45;;;;;;;1.08;0.65;;;;;;;12.04;100.00;100382.78;5032740;28;20088;-71
2022/10/29 02:41:10;;;;;;;2.10;0.80;;;;;;;12.05;100.00;100375.53;5032334;28;20122;-71
2022/10/29 02:43:36;;;;;;;0.00;0.00;;;;;;;12.02;100.00;100371.28;5032188;28;20470;-71
2022/10/29 02:46:12;;;;;;;0.20;0.20;;;;;;;12.02;100.00;100370.44;5032406;28;20379;-71
2022/10/29 02:48:38;;;;;;;0.10;0.10;;;;;;;12.09;100.00;100365.31;5032626;28;20037;-71
2022/10/29 02:51:04;;;;;;;0.10;0.10;;;;;;;12.08;100.00;100364.47;5032344;28;20044;-72
2022/10/29 02:53:29;;;;;;;0.38;0.28;;;;;;;12.07;100.00;100357.38;5032380;28;20112;-72
2022/10/29 02:55:55;;;;;;;0.85;0.57;;;;;;;12.08;100.00;100352.84;5032273;28;20068;-72
2022/10/29 02:58:21;;;;;;;0.30;0.30;;;;;;;12.05;100.00;100349.44;5031136;28;20036;-71
2022/10/29 03:00:50;;;;;;;0.10;0.10;;;;;;;12.09;100.00;100331.16;5032364;28;20040;-73
2022/10/29 03:03:15;;;;;;;0.70;0.40;;;;;;;12.07;100.00;100341.22;5032786;28;20037;-73
2022/10/29 03:05:41;;;;;;;0.52;0.52;;;;;;;12.09;100.00;100327.59;5031709;28;20037;-73
2022/10/29 03:08:06;;;;;;;0.45;0.38;;;;;;;12.12;100.00;100328.19;5032349;28;20038;-72
2022/10/29 03:10:32;;;;;;;0.15;0.15;;;;;;;12.08;100.00;100329.44;5032110;28;20029;-72
2022/10/29 03:12:58;;;;;;;0.60;0.47;;;;;;;12.07;100.00;100319.66;5030647;28;20034;-72
2022/10/29 03:15:24;;;;;;;0.60;0.57;;;;;;;12.12;100.00;100327.34;5031988;28;20037;-72
2022/10/29 03:17:50;;;;;;;2.40;2.20;;;;;;;12.14;100.00;100315.44;5032210;28;20044;-71
2022/10/29 03:20:15;;;;;;;0.30;0.30;;;;;;;12.14;100.00;100314.56;5030882;28;20037;-72
2022/10/29 03:22:41;;;;;;;0.57;0.57;;;;;;;12.15;100.00;100303.66;5030752;28;20033;-71
2022/10/29 03:25:07;;;;;;;0.63;0.63;;;;;;;12.21;100.00;100294.97;5030602;28;20163;-72
2022/10/29 03:27:40;;;;;;;1.40;0.90;;;;;;;12.17;100.00;100304.34;5032179;28;20061;-70
2022/10/29 03:30:08;;;;;;;0.32;0.32;;;;;;;12.20;100.00;100293.28;5031863;28;20029;-71
2022/10/29 03:32:33;;;;;;;0.45;0.45;;;;;;;12.24;100.00;100294.69;5032107;28;20029;-70
2022/10/29 03:34:59;;;;;;;0.40;0.40;;;;;;;12.19;100.00;100286.19;5032135;28;20470;-72
2022/10/29 03:37:24;;;;;;;1.13;1.05;;;;;;;12.23;100.00;100284.91;5032352;28;20040;-71
2022/10/29 03:39:50;;;;;;;2.03;0.70;;;;;;;12.32;100.00;100275.94;5030649;28;20389;-71
2022/10/29 03:42:15;;;;;;;0.75;0.60;;;;;;;12.33;100.00;100272.25;5031850;28;20025;-70
2022/10/29 03:44:41;;;;;;;2.42;1.13;;;;;;;12.37;100.00;100277.34;5030480;28;20136;-71
2022/10/29 03:47:08;;;;;;;1.10;1.00;;;;;;;12.38;100.00;100262.88;5031719;28;20033;-71
2022/10/29 03:49:33;;;;;;;1.10;0.43;;;;;;;12.38;100.00;100268.28;5030558;28;20033;-72
2022/10/29 03:51:59;;;;;;;0.73;0.60;;;;;;;12.44;100.00;100262.31;5032045;28;20462;-71
2022/10/29 03:54:24;;;;;;;2.50;0.60;;;;;;;12.47;100.00;100253.94;5030391;28;20132;-71
2022/10/29 03:56:50;;;;;;;0.40;0.40;;;;;;;12.53;100.00;100238.00;5031944;28;20029;-69
2022/10/29 03:59:16;;;;;;;1.50;0.98;;;;;;;12.59;100.00;100250.88;5030571;28;20029;-71
2022/10/29 04:01:41;;;;;;;0.73;0.73;;;;;;;12.58;100.00;100248.31;5030610;28;20037;-71
2022/10/29 04:04:09;;;;;;;0.85;0.57;;;;;;;12.61;100.00;100243.50;5030492;28;20038;-71
2022/10/29 04:06:34;;;;;;;1.35;1.25;;;;;;;12.61;100.00;100238.13;5031604;28;20087;-72
2022/10/29 04:09:00;;;;;;;2.28;1.23;;;;;;;12.64;100.00;100248.59;5030131;28;20482;-71
2022/10/29 04:11:25;;;;;;;0.75;0.75;;;;;;;12.64;100.00;100228.88;5031858;28;20390;-71
2022/10/29 04:13:52;;;;;;;1.90;1.33;;;;;;;12.66;100.00;100226.88;5030507;28;20037;-72
2022/10/29 04:16:18;;;;;;;0.90;0.90;;;;;;;12.71;100.00;100229.13;5033093;28;20025;-72
2022/10/29 04:18:46;;;;;;;5.47;1.45;;;;;;;12.69;100.00;100223.88;5036258;28;20029;-71
2022/10/29 04:21:11;;;;;;;0.40;0.40;;;;;;;12.75;100.00;100217.88;5035072;28;20037;-74
2022/10/29 04:23:37;;;;;;;0.73;0.70;;;;;;;12.75;100.00;100217.88;5034973;28;20029;-72
2022/10/29 04:26:03;;;;;;;1.98;0.98;;;;;;;12.77;100.00;100205.13;5033973;28;20112;-72
2022/10/29 04:28:29;;;;;;;0.20;0.20;;;;;;;12.77;100.00;100199.72;5035193;28;20112;-71
2022/10/29 04:30:54;;;;;;;1.40;1.35;;;;;;;12.79;100.00;100192.31;5033795;28;20056;-71
2022/10/29 04:33:20;;;;;;;1.70;1.30;;;;;;;12.84;100.00;100195.41;5033640;28;20122;-72
2022/10/29 04:35:53;;;;;;;1.30;1.20;;;;;;;12.86;100.00;100193.41;5034951;28;20044;-72
2022/10/29 04:38:20;;;;;;;1.17;1.08;;;;;;;12.91;100.00;100195.63;5035129;28;20033;-72
2022/10/29 04:40:45;;;;;;;1.60;0.95;;;;;;;12.95;100.00;100180.88;5034761;28;20029;-73
2022/10/29 04:43:11;;;;;;;1.10;1.00;;;;;;;12.98;100.00;100171.63;5033445;28;20099;-74
2022/10/29 04:45:36;;;;;;;1.48;0.90;;;;;;;13.02;100.00;100170.31;5033845;28;20037;-72
2022/10/29 04:48:03;;;;;;;2.72;1.17;;;;;;;13.05;100.00;100172.69;5033528;28;20524;-74
2022/10/29 04:50:30;;;;;;;1.45;1.35;;;;;;;13.03;100.00;100166.59;5034473;28;20038;-71
2022/10/29 04:53:04;;;;;;;1.08;1.08;;;;;;;13.05;100.00;100153.78;5033841;28;20486;-72
2022/10/29 04:55:30;;;;;;;1.45;0.60;;;;;;;13.07;100.00;100165.28;5034298;28;20123;-73
2022/10/29 04:57:56;;;;;;;13.27;1.23;;;;;;;13.10;100.00;100151.47;5034719;28;20397;-73
2022/10/29 05:00:22;;;;;;;1.20;0.80;;;;;;;13.13;100.00;100156.59;5034609;28;20033;-72
2022/10/29 05:02:50;;;;;;;0.57;0.57;;;;;;;13.20;100.00;100152.28;5033137;28;20484;-73
2022/10/29 05:05:18;;;;;;;1.15;1.10;;;;;;;13.22;100.00;100144.88;5032976;28;20200;-73
2022/10/29 05:07:44;;;;;;;2.30;1.30;;;;;;;13.25;100.00;100149.97;5032980;28;20552;-72
2022/10/29 05:10:10;;;;;;;1.73;1.60;;;;;;;13.28;100.00;100143.44;5034325;28;20045;-72
2022/10/29 05:12:39;;;;;;;1.58;1.48;;;;;;;13.28;100.00;100116.44;5034387;28;20091;-72
2022/10/29 05:15:05;;;;;;;5.65;1.42;;;;;;;13.31;100.00;100143.97;5034203;28;20033;-72
2022/10/29 05:17:36;;;;;;;0.93;0.77;;;;;;;13.38;100.00;100138.78;5034270;28;20151;-73
2022/10/29 05:20:02;;;;;;;0.98;0.85;;;;;;;13.36;100.00;100125.44;5032683;28;20552;-73
2022/10/29 05:22:28;;;;;;;1.05;1.00;;;;;;;13.39;100.00;100116.19;5032559;28;20034;-73
2022/10/29 05:24:54;;;;;;;3.83;1.10;;;;;;;13.40;100.00;100132.22;5034112;28;20076;-73
2022/10/29 05:27:20;;;;;;;1.13;0.98;;;;;;;13.44;100.00;100117.44;5033425;28;20033;-73
2022/10/29 05:29:45;;;;;;;1.35;0.80;;;;;;;13.47;100.00;100106.31;5032545;28;20030;-72
2022/10/29 05:32:11;;;;;;;1.05;1.02;;;;;;;13.53;100.00;100127.28;5033766;28;20111;-73
2022/10/29 05:34:36;;;;;;;1.40;1.30;;;;;;;13.51;100.00;100118.47;5033823;28;20057;-74
2022/10/29 05:37:02;;;;;;;2.83;1.65;;;;;;;13.60;100.00;100115.81;5033415;28;20028;-73
2022/10/29 05:39:27;;;;;;;0.52;0.52;;;;;;;13.61;100.00;100122.97;5033761;28;20040;-73
2022/10/29 05:41:53;;;;;;;0.75;0.60;;;;;;;13.64;100.00;100122.63;5032335;28;20037;-75
2022/10/29 05:44:18;;;;;;;0.30;0.30;;;;;;;13.63;100.00;100111.00;5032372;28;20133;-73
2022/10/29 05:46:48;;;;;;;2.97;0.98;;;;;;;13.59;100.00;100116.84;5033613;28;20055;-71
2022/10/29 05:49:13;;;;;;;0.43;0.43;;;;;;;13.67;100.00;100117.75;5033528;28;20565;-73
2022/10/29 05:51:39;;;;;;;0.95;0.77;;;;;;;13.66;100.00;100115.22;5033521;28;20100;-75
2022/10/29 05:54:04;;;;;;;0.50;0.50;;;;;;;13.68;100.00;100118.59;5032130;28;20033;-76
2022/10/29 05:56:31;;;;;;;0.60;0.60;;;;;;;13.58;100.00;100112.44;5033718;28;20119;-74
2022/10/29 05:58:57;;;;;;;0.75;0.75;;;;;;;13.71;100.00;100102.06;5033653;28;20099;-72
2022/10/29 06:01:22;;;;;;;1.00;0.95;;;;;;;13.73;100.00;100094.66;5033270;28;20033;-72
2022/10/29 06:03:48;;;;;;;0.45;0.45;;;;;;;13.69;100.00;100104.94;5033588;28;20038;-73
2022/10/29 06:06:13;;;;;;;2.65;1.50;;;;;;;13.77;99.61;100080.69;5031981;28;20060;-72
2022/10/29 06:08:39;;;;;;;1.23;0.63;;;;;;;13.76;99.79;100088.94;5032787;28;20048;-74
2022/10/29 06:11:05;;;;;;;0.80;0.65;;;;;;;13.71;99.51;100091.28;5033075;28;20501;-74
2022/10/29 06:13:30;;;;;;;2.50;0.98;;;;;;;13.72;99.10;100098.38;5033209;28;20044;-74
2022/10/29 06:15:58;;;;;;;0.38;0.38;;;;;;;13.72;99.08;100093.81;5033214;28;20040;-74
2022/10/29 06:18:25;;;;;;;0.55;0.52;;;;;;;13.73;98.63;100100.91;5032899;28;20450;-73
2022/10/29 06:20:51;;;;;;;0.17;0.17;;;;;;;13.72;98.40;100103.75;5032591;28;20037;-72
2022/10/29 06:23:17;;;;;;;0.30;0.30;;;;;;;13.77;97.88;100090.63;5032698;28;20043;-73
2022/10/29 06:25:42;;;;;;;0.40;0.40;;;;;;;13.79;96.94;100110.25;5031536;28;20036;-73
2022/10/29 06:28:17;;;;;;;0.20;0.20;;;;;;;13.79;95.55;100110.25;5032994;28;20041;-74
2022/10/29 06:30:48;;;;;;;0.20;0.20;;;;;;;13.85;94.22;100112.31;5032724;28;20048;-74
2022/10/29 06:33:15;;;;;;;0.20;0.20;;;;;;;13.84;93.67;100116.00;5032429;28;20038;-73
2022/10/29 06:35:40;;;;;;;0.40;0.40;;;;;;;13.85;92.93;100115.00;5032799;28;20072;-75
2022/10/29 06:38:06;;;;;;;0.30;0.30;;;;;;;13.87;91.67;100114.84;5032564;28;20459;-75
2022/10/29 06:40:32;;;;;;;0.80;0.73;;;;;;;13.93;89.96;100128.53;5033146;28;20037;-73
2022/10/29 06:43:03;;;;;;;0.35;0.35;;;;;;;13.92;89.37;100120.59;5032769;28;20038;-74
2022/10/29 06:45:29;;;;;;;2.20;0.55;;;;;;;13.89;88.60;100151.50;5033204;28;20367;-74
2022/10/29 06:47:55;;;;;;;0.20;0.20;;;;;;;13.84;88.70;100145.72;5033023;28;20033;-74
2022/10/29 06:50:21;;;;;;;0.35;0.35;;;;;;;13.82;88.76;100153.16;5034398;28;20048;-73
2022/10/29 06:52:58;;;;;;;0.10;0.10;;;;;;;13.83;87.58;100149.44;5034988;28;20030;-74
2022/10/29 06:55:24;;;;;;;0.17;0.17;;;;;;;13.83;87.37;100166.50;5035286;28;20140;-73
2022/10/29 06:58:11;;;;;;;0.15;0.15;;;;;;;13.84;86.54;100167.34;5042209;28;20022;-73
2022/10/29 07:00:37;;;;;;;0.32;0.32;;;;;;;13.81;85.96;100167.66;5046790;28;20049;-73
2022/10/29 07:03:03;;;;;;;0.15;0.15;;;;;;;13.86;85.03;100170.75;5037116;28;20025;-74
2022/10/29 07:05:30;;;;;;;0.63;0.60;;;;;;;13.76;84.21;100149.22;5033210;28;20391;-72
2022/10/29 07:07:57;;;;;;;0.00;0.00;;;;;;;13.78;84.18;100173.41;5033025;28;20419;-74
2022/10/29 07:10:23;;;;;;;2.58;0.57;;;;;;;13.77;83.61;100180.66;5033034;28;20168;-72
2022/10/29 07:12:48;;;;;;;0.10;0.10;;;;;;;13.73;83.97;100181.09;5034335;28;20171;-71
2022/10/29 07:15:14;;;;;;;0.30;0.30;;;;;;;13.70;83.68;100189.53;5035537;28;20458;-73
2022/10/29 07:17:40;;;;;;;0.00;0.00;;;;;;;13.62;84.31;100200.28;5034642;28;20037;-73
2022/10/29 07:20:09;;;;;;;0.00;0.00;;;;;;;13.61;83.72;100195.88;5032529;28;20650;-74
2022/10/29 07:22:35;;;;;;;0.10;0.10;;;;;;;13.57;83.98;100207.97;5032130;28;20444;-71
2022/10/29 07:25:01;;;;;;;0.10;0.10;;;;;;;13.52;84.07;100195.78;5031211;28;20037;-74
2022/10/29 07:27:27;;;;;;;0.40;0.40;;;;;;;13.42;84.02;100186.06;5032041;28;20515;-73
2022/10/29 07:29:52;;;;;;;0.03;0.03;;;;;;;13.35;84.51;100187.69;5030443;28;20585;-69
2022/10/29 07:32:18;;;;;;;0.88;0.43;;;;;;;13.22;84.60;100185.38;5032590;28;20423;-75
2022/10/29 07:34:43;;;;;;;8.07;1.92;;;;;;;13.19;84.99;100188.38;5030804;28;20379;-74
2022/10/29 07:37:09;;;;;;;3.95;2.20;;;;;;;13.17;84.75;100185.81;5031191;28;20038;-72
2022/10/29 07:39:35;;;;;;;6.07;2.50;;;;;;;13.13;84.54;100191.69;5030542;28;20033;-73
2022/10/29 07:42:00;;;;;;;5.07;2.10;;;;;;;13.07;85.47;100178.78;5030358;28;20033;-73
2022/10/29 07:44:26;;;;;;;8.45;3.05;;;;;;;13.11;84.64;100186.44;5030836;28;20379;-73
2022/10/29 07:46:51;;;;;;;6.00;2.55;;;;;;;13.07;84.52;100200.38;5030451;28;20040;-72
2022/10/29 07:49:17;;;;;;;10.00;2.50;;;;;;;13.03;84.60;100186.34;5031501;28;20151;-72
2022/10/29 07:51:42;;;;;;;6.72;2.28;;;;;;;12.93;85.09;100183.72;5032407;28;20029;-73
2022/10/29 07:54:08;;;;;;;4.50;1.90;;;;;;;13.00;84.29;100188.50;5034182;28;20049;-75
2022/10/29 07:56:33;;;;;;;8.40;2.45;;;;;;;12.92;84.95;100182.00;5033850;28;20484;-73
2022/10/29 07:58:59;;;;;;;8.55;2.20;;;;;;;12.95;84.73;100181.72;5035229;28;20056;-72
2022/10/29 08:01:26;;;;;;;5.45;1.90;;;;;;;12.98;84.48;100182.41;5034485;28;20421;-72
2022/10/29 08:03:51;;;;;;;5.30;1.42;;;;;;;12.99;84.04;100182.25;5034483;28;20026;-73
2022/10/29 08:06:17;;;;;;;7.32;2.25;;;;;;;12.99;84.23;100176.00;5035477;28;20043;-73
2022/10/29 08:08:42;;;;;;;6.82;2.25;;;;;;;12.96;84.20;100166.38;5035089;28;20025;-72
2022/10/29 08:11:08;;;;;;;11.32;2.40;;;;;;;12.99;83.41;100184.09;5033347;28;20461;-73
2022/10/29 08:13:34;;;;;;;6.53;2.38;;;;;;;12.98;83.85;100185.09;5033454;28;20107;-70
2022/10/29 08:15:59;;;;;;;7.95;1.90;;;;;;;12.97;83.22;100176.16;5035711;28;20039;-72
2022/10/29 08:18:25;;;;;;;9.82;2.53;;;;;;;13.02;82.59;100197.28;5033892;28;20071;-73
2022/10/29 08:20:51;;;;;;;5.35;1.40;;;;;;;13.03;81.79;100190.88;5034914;28;20029;-72
2022/10/29 08:23:16;;;;;;;3.97;1.70;;;;;;;13.11;80.76;100185.59;5033448;28;20410;-72
2022/10/29 08:25:44;;;;;;;11.35;1.92;;;;;;;13.01;81.85;100190.19;5034783;28;20390;-73
2022/10/29 08:28:11;;;;;;;9.65;2.25;;;;;;;13.09;81.14;100183.00;5034809;28;20426;-74
2022/10/29 08:30:37;;;;;;;7.32;2.13;;;;;;;13.10;80.58;100182.03;5035095;28;20079;-73
2022/10/29 08:33:03;;;;;;;7.13;2.05;;;;;;;13.13;79.79;100188.97;5034798;28;20030;-73
2022/10/29 08:35:30;;;;;;;5.20;1.35;;;;;;;13.18;79.41;100192.09;5034945;28;20417;-72
2022/10/29 08:37:59;;;;;;;6.50;1.60;;;;;;;13.13;78.64;100199.78;5033277;28;20033;-73
2022/10/29 08:40:52;;;;;;;4.00;2.17;;;;;;;13.20;78.78;100199.03;5035582;28;20029;-71
2022/10/29 08:43:55;;;;;;;6.07;1.08;;;;;;;13.23;77.71;100200.56;5034120;28;20095;-73
2022/10/29 08:46:33;;;;;;;7.57;1.65;;;;;;;13.25;77.59;100203.97;5033478;28;20915;-74
2022/10/29 08:49:04;;;;;;;4.45;1.35;;;;;;;13.31;76.07;100189.88;5034050;28;20080;-73
2022/10/29 08:51:42;;;;;;;4.35;1.00;;;;;;;13.30;74.95;100206.22;5034484;28;20037;-71
2022/10/29 08:54:13;;;;;;;5.57;1.13;;;;;;;13.33;75.04;100214.84;5034383;28;20055;-71
2022/10/29 08:56:46;;;;;;;3.97;1.50;;;;;;;13.35;74.08;100210.16;5034479;28;20033;-71
2022/10/29 08:59:23;;;;;;;6.10;1.30;;;;;;;13.37;73.96;100216.25;5034287;28;20454;-71
2022/10/29 09:01:52;;;;;;;5.93;1.23;;;;;;;13.41;73.52;100214.91;5034317;28;20033;-69
2022/10/29 09:04:23;;;;;;;6.20;1.70;;;;;;;13.46;72.65;100207.22;5034284;28;20564;-73
2022/10/29 09:07:33;;;;;;;3.72;0.90;;;;;;;13.50;71.98;100197.81;5034912;28;20087;-72
2022/10/29 09:10:11;;;;;;;5.78;1.20;;;;;;;13.65;71.20;100199.97;5034639;28;20120;-72
2022/10/29 09:12:43;;;;;;;6.10;1.70;;;;;;;13.95;70.00;100191.41;5032817;28;20057;-73
2022/10/29 09:15:47;;;;;;;4.15;0.95;;;;;;;13.91;69.33;100222.44;5033869;28;20030;-72
2022/10/29 09:18:33;;;;;;;10.07;1.42;;;;;;;13.85;69.83;100212.28;5033297;28;20052;-72
2022/10/29 09:21:17;;;;;;;4.43;1.13;;;;;;;14.19;68.24;100198.81;5034470;28;20052;-72
2022/10/29 09:24:17;;;;;;;2.03;0.70;;;;;;;14.27;67.17;100196.16;5032441;28;20053;-69
2022/10/29 09:26:50;;;;;;;3.28;1.20;;;;;;;14.32;67.14;100203.81;5033836;28;20038;-71
2022/10/29 09:29:34;;;;;;;14.30;2.25;;;;;;;14.70;65.25;100197.94;5033793;28;20042;-70
2022/10/29 09:32:14;;;;;;;4.80;1.02;;;;;;;14.58;65.83;100212.75;5033768;28;20042;-69
2022/10/29 09:34:42;;;;;;;3.72;1.10;;;;;;;14.51;65.39;100208.16;5033438;28;20033;-69
2022/10/29 09:37:19;;;;;;;4.85;1.40;;;;;;;14.59;65.22;100205.47;5032480;28;20035;-68
2022/10/29 09:39:46;;;;;;;3.60;1.05;;;;;;;14.54;65.33;100192.44;5032334;28;20121;-68
2022/10/29 09:42:19;;;;;;;3.85;1.27;;;;;;;14.57;64.72;100200.25;5033611;28;20065;-68
2022/10/29 09:44:57;;;;;;;4.97;1.00;;;;;;;14.52;64.28;100199.03;5032660;28;20026;-69
2022/10/29 09:47:57;;;;;;;5.20;1.13;;;;;;;14.48;65.03;100227.44;5032770;28;20043;-69
2022/10/29 09:50:40;;;;;;;5.88;1.05;;;;;;;14.73;64.27;100215.69;5032690;28;20041;-67
2022/10/29 09:53:07;;;;;;;5.82;1.02;;;;;;;14.87;64.13;100216.94;5031232;28;20115;-69
2022/10/29 09:55:44;;;;;;;2.78;1.05;;;;;;;14.94;63.08;100204.44;5031507;28;20095;-68
2022/10/29 09:58:20;;;;;;;3.97;1.30;;;;;;;14.86;63.49;100205.28;5033332;28;20063;-68
2022/10/29 10:00:46;;;;;;;2.22;1.00;;;;;;;14.83;63.21;100208.31;5032837;28;20483;-68
2022/10/29 10:03:14;;;;;;;2.97;1.20;;;;;;;15.13;61.92;100223.13;5031118;28;20076;-68
2022/10/29 10:05:58;;;;;;;2.50;0.82;;;;;;;14.79;62.72;100212.38;5032141;28;20510;-68
2022/10/29 10:08:24;;;;;;;3.22;0.88;;;;;;;14.93;63.10;100208.16;5030741;28;20036;-69
2022/10/29 10:11:04;;;;;;;3.38;0.98;;;;;;;14.81;62.72;100214.91;5032711;28;20112;-68
2022/10/29 10:13:37;;;;;;;3.33;1.20;;;;;;;14.89;63.04;100213.06;5030658;28;20036;-67
2022/10/29 10:16:05;;;;;;;2.70;0.75;;;;;;;14.90;62.38;100220.16;5031928;28;20034;-68
2022/10/29 10:18:30;;;;;;;3.75;0.85;;;;;;;15.37;61.33;100214.19;5030742;28;20029;-68
2022/10/29 10:21:00;;;;;;;2.78;1.00;;;;;;;15.01;61.49;100217.16;5032537;28;20041;-67
2022/10/29 10:23:46;;;;;;;4.35;0.77;;;;;;;14.96;61.68;100215.97;5031357;28;20033;-67
2022/10/29 10:26:43;;;;;;;3.05;0.80;;;;;;;15.04;61.28;100216.00;5030494;28;20029;-68
2022/10/29 10:29:22;;;;;;;3.42;0.70;;;;;;;14.98;61.37;100214.78;5032517;28;20124;-68
2022/10/29 10:32:08;;;;;;;3.22;1.02;;;;;;;15.12;61.50;100221.44;5032104;28;20041;-67
2022/10/29 10:34:33;;;;;;;3.47;1.30;;;;;;;15.03;60.89;100227.81;5032367;28;20033;-67
2022/10/29 10:37:08;;;;;;;2.80;0.70;;;;;;;15.28;60.21;100240.44;5029973;28;20040;-67
2022/10/29 10:40:07;;;;;;;4.38;0.75;;;;;;;14.93;60.58;100237.94;5030377;28;20343;-68
2022/10/29 10:42:41;;;;;;;4.72;1.17;;;;;;;15.20;59.84;100239.56;5026069;28;20402;-69
2022/10/29 10:45:15;;;;;;;2.47;0.63;;;;;;;15.04;59.63;100248.47;5031443;28;20028;-68
2022/10/29 10:47:45;;;;;;;1.83;0.93;;;;;;;14.94;60.06;100242.34;5030161;28;20474;-67
2022/10/29 10:50:21;;;;;;;6.20;0.77;;;;;;;14.82;59.96;100255.31;5031732;28;20493;-68
2022/10/29 10:52:48;;;;;;;4.45;0.57;;;;;;;14.63;60.44;100245.59;5030225;28;20083;-69
2022/10/29 10:55:36;;;;;;;3.40;1.13;;;;;;;14.63;60.09;100250.16;5030708;28;20477;-68
2022/10/29 10:58:21;;;;;;;3.45;0.90;;;;;;;14.41;61.46;100252.34;5029679;28;20025;-68
2022/10/29 11:00:56;;;;;;;2.95;0.95;;;;;;;14.37;61.77;100266.38;5031620;28;20462;-68
2022/10/29 11:03:37;;;;;;;2.05;0.52;;;;;;;14.40;61.40;100268.75;5029987;28;20028;-68
2022/10/29 11:06:03;;;;;;;3.03;0.55;;;;;;;14.52;61.47;100254.00;5031787;28;20025;-68
2022/10/29 11:09:12;;;;;;;4.28;1.00;;;;;;;14.60;60.85;100267.53;5030016;28;20410;-68
2022/10/29 11:11:50;;;;;;;2.63;0.63;;;;;;;14.55;61.68;100261.78;5029304;28;20517;-68
2022/10/29 11:14:31;;;;;;;2.72;1.00;;;;;;;14.40;62.35;100276.84;5029769;28;20026;-68
2022/10/29 11:17:03;;;;;;;3.70;0.98;;;;;;;14.24;62.79;100266.78;5030969;28;20056;-68
2022/10/29 11:19:44;;;;;;;5.72;0.68;;;;;;;14.23;63.06;100269.66;5031586;28;20035;-69
2022/10/29 11:22:23;;;;;;;1.98;0.50;;;;;;;14.25;62.66;100268.47;5031443;28;20026;-68
2022/10/29 11:25:01;;;;;;;2.53;0.73;;;;;;;14.34;62.78;100278.34;5029956;28;20037;-69
2022/10/29 11:28:07;;;;;;;3.05;0.50;;;;;;;14.29;62.62;100263.63;5030644;28;20040;-69
2022/10/29 11:30:44;;;;;;;3.88;0.68;;;;;;;14.34;62.71;100277.50;5029505;28;20030;-68
2022/10/29 11:33:10;;;;;;;3.90;1.10;;;;;;;14.31;62.59;100269.72;5031085;28;20033;-68
2022/10/29 11:35:42;;;;;;;3.47;0.60;;;;;;;14.29;62.24;100269.03;5029715;28;20035;-68
2022/10/29 11:38:12;;;;;;;7.35;0.88;;;;;;;14.31;62.55;100269.72;5029824;28;20033;-69
2022/10/29 11:40:54;;;;;;;5.40;0.65;;;;;;;14.30;62.82;100266.16;5031045;28;20025;-69